createdAt,value
2018-11-03T00:00:25.571Z,7.73
2018-11-03T00:02:55.273Z,7.70
2018-11-03T00:05:24.937Z,7.71
2018-11-03T00:07:54.654Z,7.69
2018-11-03T00:10:24.310Z,7.64
2018-11-03T00:12:53.987Z,7.63
2018-11-03T00:15:23.659Z,7.68
2018-11-03T00:17:53.313Z,7.68
2018-11-03T00:20:22.968Z,7.70
2018-11-03T00:22:52.775Z,7.70
2018-11-03T00:25:22.428Z,7.70
2018-11-03T00:27:52.134Z,7.64
2018-11-03T00:30:21.813Z,7.68
2018-11-03T00:32:51.456Z,7.64
2018-11-03T00:35:21.164Z,7.76
2018-11-03T00:37:50.830Z,7.74
2018-11-03T00:40:20.501Z,7.77
2018-11-03T00:42:50.236Z,7.75
2018-11-03T00:45:19.901Z,7.72
2018-11-03T00:47:49.588Z,7.72
2018-11-03T00:50:19.284Z,7.66
2018-11-03T00:52:48.957Z,7.63
2018-11-03T00:55:18.638Z,7.62
2018-11-03T00:57:48.322Z,7.65
2018-11-03T01:00:18.952Z,7.70
2018-11-03T01:02:49.737Z,7.66
2018-11-03T01:05:19.400Z,7.69
2018-11-03T01:07:49.140Z,7.65
2018-11-03T01:10:18.882Z,7.61
2018-11-03T01:12:48.536Z,7.65
2018-11-03T01:15:18.712Z,7.65
2018-11-03T01:17:48.348Z,7.62
2018-11-03T01:20:18.539Z,7.64
2018-11-03T01:22:48.219Z,7.62
2018-11-03T01:25:17.908Z,7.65
2018-11-03T01:27:47.674Z,7.70
2018-11-03T01:30:17.762Z,7.64
2018-11-03T01:32:47.456Z,7.60
2018-11-03T01:35:17.137Z,7.59
2018-11-03T01:37:46.785Z,7.59
2018-11-03T01:40:16.482Z,7.59
2018-11-03T01:42:46.133Z,7.55
2018-11-03T01:45:15.833Z,7.48
2018-11-03T01:47:45.539Z,7.43
2018-11-03T01:50:15.214Z,7.45
2018-11-03T01:52:44.877Z,7.36
2018-11-03T01:55:14.607Z,7.33
2018-11-03T01:57:44.228Z,7.34
2018-11-03T02:00:13.931Z,7.25
2018-11-03T02:02:43.625Z,7.24
2018-11-03T02:05:13.296Z,7.18
2018-11-03T02:07:42.972Z,7.16
2018-11-03T02:10:13.068Z,7.18
2018-11-03T02:12:42.860Z,7.09
2018-11-03T02:15:12.959Z,7.06
2018-11-03T02:17:42.715Z,6.96
2018-11-03T02:20:12.613Z,6.95
2018-11-03T02:22:42.317Z,6.95
2018-11-03T02:25:12.029Z,6.90
2018-11-03T02:27:42.161Z,6.79
2018-11-03T02:30:12.628Z,6.74
2018-11-03T02:32:42.396Z,6.65
2018-11-03T02:35:12.470Z,6.60
2018-11-03T02:37:42.333Z,6.51
2018-11-03T02:40:12.964Z,6.45
2018-11-03T02:42:43.187Z,6.47
2018-11-03T02:45:12.993Z,6.48
2018-11-03T02:47:42.894Z,6.41
2018-11-03T02:50:15.208Z,6.42
2018-11-03T02:52:44.877Z,6.40
2018-11-03T02:55:15.472Z,6.44
2018-11-03T02:57:45.132Z,6.44
2018-11-03T03:00:14.845Z,6.46
2018-11-03T03:02:44.543Z,6.44
2018-11-03T03:05:14.201Z,6.48
2018-11-03T03:07:43.875Z,6.50
2018-11-03T03:10:13.731Z,6.47
2018-11-03T03:12:43.382Z,6.43
2018-11-03T03:15:13.753Z,6.36
2018-11-03T03:17:43.940Z,6.28
2018-11-03T03:20:13.709Z,6.24
2018-11-03T03:22:43.376Z,6.25
2018-11-03T03:25:13.152Z,6.23
2018-11-03T03:27:42.886Z,6.23
2018-11-03T03:30:12.750Z,6.23
2018-11-03T03:32:42.500Z,6.21
2018-11-03T03:35:12.185Z,6.08
2018-11-03T03:37:41.828Z,5.98
2018-11-03T03:40:11.843Z,5.92
2018-11-03T03:42:41.481Z,5.88
2018-11-03T03:45:11.649Z,5.86
2018-11-03T03:47:41.300Z,5.84
2018-11-03T03:50:11.684Z,5.75
2018-11-03T03:52:41.330Z,5.67
2018-11-03T03:55:11.099Z,5.61
2018-11-03T03:57:40.759Z,5.60
2018-11-03T04:00:11.860Z,5.58
2018-11-03T04:02:41.851Z,5.52
2018-11-03T04:05:11.575Z,5.41
2018-11-03T04:07:41.236Z,5.34
2018-11-03T04:10:11.140Z,5.32
2018-11-03T04:12:41.014Z,5.25
2018-11-03T04:15:10.740Z,5.22
2018-11-03T04:17:40.433Z,5.12
2018-11-03T04:20:10.138Z,5.11
2018-11-03T04:22:39.794Z,5.14
2018-11-03T04:25:09.532Z,5.12
2018-11-03T04:27:39.250Z,5.00
2018-11-03T04:30:12.019Z,5.07
2018-11-03T04:32:42.095Z,5.01
2018-11-03T04:35:12.260Z,4.99
2018-11-03T04:37:41.932Z,4.96
2018-11-03T04:40:12.958Z,4.88
2018-11-03T04:42:42.898Z,4.86
2018-11-03T04:45:13.173Z,4.83
2018-11-03T04:47:42.874Z,4.78
2018-11-03T04:50:12.539Z,4.78
2018-11-03T04:52:42.261Z,4.66
2018-11-03T04:55:12.042Z,4.63
2018-11-03T04:57:41.591Z,4.69
2018-11-03T05:00:11.841Z,4.60
2018-11-03T05:02:41.500Z,4.61
2018-11-03T05:05:11.216Z,4.72
2018-11-03T05:07:40.891Z,4.76
2018-11-03T05:10:10.597Z,4.90
2018-11-03T05:12:40.281Z,4.95
2018-11-03T05:15:09.948Z,4.83
2018-11-03T05:17:39.589Z,4.81
2018-11-03T05:20:09.379Z,4.88
2018-11-03T05:22:39.036Z,4.89
2018-11-03T05:25:08.730Z,4.95
2018-11-03T05:27:38.441Z,4.81
2018-11-03T05:30:08.617Z,4.84
2018-11-03T05:32:38.492Z,4.74
2018-11-03T05:35:08.156Z,4.66
2018-11-03T05:37:37.812Z,4.69
2018-11-03T05:40:07.579Z,4.63
2018-11-03T05:42:37.233Z,4.59
2018-11-03T05:45:06.983Z,4.50
2018-11-03T05:47:36.684Z,4.61
2018-11-03T05:50:07.643Z,4.65
2018-11-03T05:52:37.424Z,4.64
2018-11-03T05:55:08.159Z,4.52
2018-11-03T05:57:37.853Z,4.44
2018-11-03T06:00:09.361Z,4.32
2018-11-03T06:02:39.155Z,4.32
2018-11-03T06:05:08.848Z,4.42
2018-11-03T06:07:38.514Z,4.37
2018-11-03T06:10:08.899Z,4.40
2018-11-03T06:12:38.825Z,4.30
2018-11-03T06:15:08.574Z,4.32
2018-11-03T06:17:38.224Z,4.31
2018-11-03T06:20:08.048Z,4.30
2018-11-03T06:22:37.903Z,4.42
2018-11-03T06:25:09.081Z,4.46
2018-11-03T06:27:39.240Z,4.41
2018-11-03T06:30:10.554Z,4.48
2018-11-03T06:32:40.508Z,4.49
2018-11-03T06:35:11.290Z,4.39
2018-11-03T06:37:40.908Z,4.46
2018-11-03T06:40:10.628Z,4.42
2018-11-03T06:42:40.317Z,4.49
2018-11-03T06:45:10.615Z,4.44
2018-11-03T06:47:40.336Z,4.42
2018-11-03T06:50:10.044Z,4.49
2018-11-03T06:52:39.717Z,4.43
2018-11-03T06:55:09.504Z,4.44
2018-11-03T06:57:39.166Z,4.43
2018-11-03T07:00:09.866Z,4.27
2018-11-03T07:02:39.585Z,4.28
2018-11-03T07:05:10.194Z,4.26
2018-11-03T07:07:40.116Z,4.21
2018-11-03T07:10:10.984Z,4.19
2018-11-03T07:12:41.157Z,4.25
2018-11-03T07:15:10.696Z,4.30
2018-11-03T07:17:40.370Z,4.35
2018-11-03T07:20:11.777Z,4.36
2018-11-03T07:22:41.712Z,4.37
2018-11-03T07:25:11.474Z,4.38
2018-11-03T07:27:41.163Z,4.44
2018-11-03T07:30:12.373Z,4.54
2018-11-03T07:32:42.076Z,4.61
2018-11-03T07:35:11.779Z,4.65
2018-11-03T07:37:41.486Z,4.77
2018-11-03T07:40:11.704Z,4.74
2018-11-03T07:42:41.548Z,4.80
2018-11-03T07:45:11.457Z,4.87
2018-11-03T07:47:41.317Z,4.89
2018-11-03T07:50:12.595Z,5.02
2018-11-03T07:52:42.832Z,5.14
2018-11-03T07:55:13.368Z,5.22
2018-11-03T07:57:43.103Z,5.27
2018-11-03T08:00:13.849Z,5.32
2018-11-03T08:02:43.552Z,5.36
2018-11-03T08:05:13.284Z,5.36
2018-11-03T08:07:43.049Z,5.21
2018-11-03T08:10:13.053Z,5.29
2018-11-03T08:12:42.810Z,5.18
2018-11-03T08:15:12.797Z,5.27
2018-11-03T08:17:42.548Z,5.38
2018-11-03T08:20:12.731Z,5.52
2018-11-03T08:22:42.470Z,5.63
2018-11-03T08:25:12.202Z,5.71
2018-11-03T08:27:41.925Z,5.88
2018-11-03T08:30:13.328Z,5.92
2018-11-03T08:32:43.330Z,6.00
2018-11-03T08:35:13.681Z,6.08
2018-11-03T08:37:49.844Z,6.18
2018-11-03T08:40:19.561Z,6.27
2018-11-03T08:42:49.317Z,6.37
2018-11-03T08:45:19.063Z,6.46
2018-11-03T08:47:48.788Z,6.59
2018-11-03T08:50:18.596Z,6.63
2018-11-03T08:52:48.419Z,6.77
2018-11-03T08:55:18.140Z,6.97
2018-11-03T08:57:47.897Z,7.23
2018-11-03T09:00:17.756Z,7.30
2018-11-03T09:02:47.356Z,7.44
2018-11-03T09:05:17.046Z,7.55
2018-11-03T09:07:46.768Z,7.67
2018-11-03T09:10:16.471Z,7.87
2018-11-03T09:12:46.211Z,8.07
2018-11-03T09:15:16.045Z,8.20
2018-11-03T09:17:45.892Z,8.38
2018-11-03T09:20:15.580Z,8.71
2018-11-03T09:22:45.382Z,8.88
2018-11-03T09:25:16.138Z,9.12
2018-11-03T09:27:46.086Z,9.27
2018-11-03T09:30:17.732Z,9.45
2018-11-03T09:32:47.456Z,9.69
2018-11-03T09:35:17.589Z,9.70
2018-11-03T09:37:47.387Z,9.91
2018-11-03T09:40:17.808Z,10.03
2018-11-03T09:42:48.424Z,10.23
2018-11-03T09:45:18.124Z,10.39
2018-11-03T09:47:47.875Z,10.68
2018-11-03T09:50:17.576Z,10.69
2018-11-03T09:52:47.302Z,10.67
2018-11-03T09:55:18.376Z,10.68
2018-11-03T09:57:48.124Z,10.69
2018-11-03T10:00:19.096Z,10.69
2018-11-03T10:02:48.814Z,10.70
2018-11-03T10:05:18.547Z,10.83
2018-11-03T10:07:48.292Z,10.91
2018-11-03T10:10:19.273Z,10.98
2018-11-03T10:12:49.012Z,11.15
2018-11-03T10:15:19.424Z,11.18
2018-11-03T10:17:49.137Z,11.20
2018-11-03T10:20:18.864Z,11.22
2018-11-03T10:22:48.742Z,11.15
2018-11-03T10:25:19.821Z,11.18
2018-11-03T10:27:49.874Z,11.11
2018-11-03T10:30:19.609Z,11.08
2018-11-03T10:32:49.309Z,11.13
2018-11-03T10:35:19.024Z,11.18
2018-11-03T10:37:48.773Z,11.13
2018-11-03T10:40:18.908Z,11.25
2018-11-03T10:42:48.623Z,11.26
2018-11-03T10:45:18.316Z,11.28
2018-11-03T10:47:48.029Z,11.20
2018-11-03T10:50:18.926Z,11.09
2018-11-03T10:52:49.018Z,11.20
2018-11-03T10:55:19.744Z,11.27
2018-11-03T10:57:49.476Z,11.32
2018-11-03T11:00:25.416Z,11.32
2018-11-03T11:03:00.578Z,11.45
2018-11-03T11:05:35.908Z,11.30
2018-11-03T11:09:13.733Z,11.18
2018-11-03T11:11:48.650Z,10.82
2018-11-03T11:14:19.013Z,10.75
2018-11-03T11:16:48.690Z,10.52
2018-11-03T11:19:18.362Z,10.46
2018-11-03T11:21:48.122Z,10.47
2018-11-03T11:24:18.005Z,10.61
2018-11-03T11:26:47.597Z,10.57
2018-11-03T11:29:17.271Z,10.66
2018-11-03T11:31:47.000Z,10.67
2018-11-03T11:34:16.666Z,10.59
2018-11-03T11:36:46.394Z,10.48
2018-11-03T11:39:16.077Z,10.67
2018-11-03T11:41:45.973Z,10.68
2018-11-03T11:44:15.662Z,10.77
2018-11-03T11:46:45.381Z,10.93
2018-11-03T11:49:15.146Z,11.04
2018-11-03T11:51:44.877Z,11.08
2018-11-03T11:54:14.679Z,11.25
2018-11-03T11:56:44.406Z,11.34
2018-11-03T11:59:14.108Z,11.20
2018-11-03T12:01:43.862Z,11.04
2018-11-03T12:04:13.634Z,11.09
2018-11-03T12:06:43.346Z,11.19
2018-11-03T12:09:13.028Z,11.06
2018-11-03T12:11:42.785Z,11.33
2018-11-03T12:14:12.558Z,11.60
2018-11-03T12:16:42.307Z,11.53
2018-11-03T12:19:11.994Z,11.47
2018-11-03T12:21:41.748Z,11.32
2018-11-03T12:24:11.374Z,11.39
2018-11-03T12:26:41.163Z,11.62
2018-11-03T12:29:10.848Z,11.82
2018-11-03T12:31:40.569Z,11.90
2018-11-03T12:34:10.232Z,11.85
2018-11-03T12:36:39.887Z,11.74
2018-11-03T12:39:10.097Z,11.72
2018-11-03T12:41:39.785Z,11.68
2018-11-03T12:44:09.493Z,11.80
2018-11-03T12:46:39.180Z,12.04
2018-11-03T12:49:08.882Z,12.12
2018-11-03T12:51:38.534Z,12.22
2018-11-03T12:54:08.228Z,12.28
2018-11-03T12:56:37.883Z,12.34
2018-11-03T12:59:07.622Z,12.37
2018-11-03T13:01:37.260Z,12.52
2018-11-03T13:04:06.960Z,12.24
2018-11-03T13:06:36.653Z,12.23
2018-11-03T13:09:08.812Z,12.40
2018-11-03T13:11:38.508Z,12.57
2018-11-03T13:14:11.437Z,12.63
2018-11-03T13:16:41.088Z,12.62
2018-11-03T13:19:10.774Z,12.77
2018-11-03T13:21:40.417Z,12.86
2018-11-03T13:24:10.126Z,12.98
2018-11-03T13:26:39.818Z,13.16
2018-11-03T13:29:09.940Z,13.60
2018-11-03T13:31:39.611Z,13.50
2018-11-03T13:34:09.298Z,13.60
2018-11-03T13:36:39.211Z,13.84
2018-11-03T13:39:09.868Z,13.72
2018-11-03T13:41:39.547Z,14.02
2018-11-03T13:44:09.288Z,13.94
2018-11-03T13:46:38.983Z,13.72
2018-11-03T13:49:08.656Z,13.77
2018-11-03T13:51:38.309Z,14.02
2018-11-03T13:54:07.986Z,14.04
2018-11-03T13:56:37.787Z,14.30
2018-11-03T13:59:07.660Z,14.18
2018-11-03T14:01:37.419Z,14.14
2018-11-03T14:04:07.092Z,14.07
2018-11-03T14:06:36.768Z,14.17
2018-11-03T14:09:07.849Z,14.07
2018-11-03T14:11:37.512Z,14.00
2018-11-03T14:14:07.236Z,14.11
2018-11-03T14:16:36.956Z,14.01
2018-11-03T14:19:06.701Z,14.24
2018-11-03T14:21:36.367Z,14.23
2018-11-03T14:24:06.380Z,13.96
2018-11-03T14:26:36.112Z,13.82
2018-11-03T14:29:06.204Z,13.86
2018-11-03T14:31:35.813Z,13.86
2018-11-03T14:34:05.810Z,13.90
2018-11-03T14:36:35.481Z,13.91
2018-11-03T14:39:06.665Z,13.94
2018-11-03T14:41:36.325Z,14.07
2018-11-03T14:44:06.249Z,13.98
2018-11-03T14:46:35.956Z,14.01
2018-11-03T14:49:05.816Z,13.93
2018-11-03T14:51:35.512Z,14.01
2018-11-03T14:54:05.278Z,14.00
2018-11-03T14:56:35.014Z,13.94
2018-11-03T14:59:04.728Z,14.15
2018-11-03T15:01:34.380Z,14.20
2018-11-03T15:04:04.101Z,14.18
2018-11-03T15:06:33.772Z,13.89
2018-11-03T15:09:03.603Z,13.63
2018-11-03T15:11:33.256Z,13.07
2018-11-03T15:14:03.134Z,12.77
2018-11-03T15:16:32.698Z,12.59
2018-11-03T15:19:02.387Z,12.28
2018-11-03T15:21:32.051Z,12.11
2018-11-03T15:24:01.760Z,12.01
2018-11-03T15:26:31.450Z,11.83
2018-11-03T15:29:01.151Z,11.52
2018-11-03T15:31:30.845Z,11.38
2018-11-03T15:34:00.523Z,11.24
2018-11-03T15:36:30.185Z,11.12
2018-11-03T15:38:59.861Z,10.92
2018-11-03T15:41:29.558Z,10.91
2018-11-03T15:43:59.261Z,10.75
2018-11-03T15:46:28.944Z,10.68
2018-11-03T15:48:58.680Z,10.53
2018-11-03T15:51:28.324Z,10.33
2018-11-03T15:53:58.004Z,10.20
2018-11-03T15:56:27.668Z,10.11
2018-11-03T15:58:57.336Z,10.03
2018-11-03T16:01:27.064Z,10.01
2018-11-03T16:03:56.756Z,9.87
2018-11-03T16:06:26.616Z,9.86
2018-11-03T16:08:56.302Z,9.77
2018-11-03T16:11:25.984Z,9.57
2018-11-03T16:13:55.668Z,9.57
2018-11-03T16:16:25.366Z,9.49
2018-11-03T16:18:55.052Z,9.46
2018-11-03T16:21:24.720Z,9.41
2018-11-03T16:23:54.424Z,9.31
2018-11-03T16:26:24.044Z,9.22
2018-11-03T16:28:53.797Z,9.07
2018-11-03T16:31:23.437Z,9.15
2018-11-03T16:33:53.152Z,9.07
2018-11-03T16:36:22.813Z,8.98
2018-11-03T16:38:52.472Z,8.94
2018-11-03T16:41:22.134Z,8.92
2018-11-03T16:43:51.868Z,8.71
2018-11-03T16:46:21.524Z,8.61
2018-11-03T16:48:51.404Z,8.42
2018-11-03T16:51:21.096Z,8.38
2018-11-03T16:53:50.788Z,8.25
2018-11-03T16:56:20.470Z,8.14
2018-11-03T16:58:50.136Z,8.03
2018-11-03T17:01:19.830Z,7.99
2018-11-03T17:03:49.512Z,7.92
2018-11-03T17:06:19.187Z,7.93
2018-11-03T17:08:48.885Z,7.91
2018-11-03T17:11:18.532Z,7.89
2018-11-03T17:13:48.208Z,7.79
2018-11-03T17:16:17.853Z,7.74
2018-11-03T17:18:47.580Z,7.71
2018-11-03T17:21:17.229Z,7.71
2018-11-03T17:23:46.931Z,7.69
2018-11-03T17:26:16.624Z,7.73
2018-11-03T17:28:46.337Z,7.65
2018-11-03T17:31:15.992Z,7.60
2018-11-03T17:33:45.706Z,7.56
2018-11-03T17:36:15.388Z,7.54
2018-11-03T17:38:45.108Z,7.41
2018-11-03T17:41:14.752Z,7.44
2018-11-03T17:43:44.432Z,7.45
2018-11-03T17:46:14.064Z,7.39
2018-11-03T17:48:43.812Z,7.23
2018-11-03T17:51:13.470Z,7.29
2018-11-03T17:53:43.181Z,7.20
2018-11-03T17:56:12.874Z,7.16
2018-11-03T17:58:42.568Z,7.06
2018-11-03T18:01:12.326Z,6.98
2018-11-03T18:03:42.121Z,6.94
2018-11-03T18:06:11.864Z,6.99
2018-11-03T18:08:41.539Z,7.02
2018-11-03T18:11:11.208Z,6.95
2018-11-03T18:13:40.940Z,6.91
2018-11-03T18:16:10.613Z,6.79
2018-11-03T18:18:40.415Z,6.79
2018-11-03T18:21:10.097Z,6.87
2018-11-03T18:23:40.370Z,6.83
2018-11-03T18:26:10.060Z,6.87
2018-11-03T18:28:39.796Z,6.86
2018-11-03T18:31:09.460Z,6.77
2018-11-03T18:33:39.211Z,6.76
2018-11-03T18:36:08.929Z,6.70
2018-11-03T18:38:38.688Z,6.64
2018-11-03T18:41:08.481Z,6.60
2018-11-03T18:43:38.181Z,6.64
2018-11-03T18:46:07.993Z,6.57
2018-11-03T18:48:37.726Z,6.59
2018-11-03T18:51:07.441Z,6.58
2018-11-03T18:53:37.168Z,6.58
2018-11-03T18:56:06.879Z,6.42
2018-11-03T18:58:36.596Z,6.41
2018-11-03T19:01:06.576Z,6.43
2018-11-03T19:03:36.274Z,6.29
2018-11-03T19:06:06.417Z,6.27
2018-11-03T19:08:36.539Z,6.37
2018-11-03T19:11:06.961Z,6.33
2018-11-03T19:13:36.785Z,6.31
2018-11-03T19:16:06.579Z,6.33
2018-11-03T19:18:36.353Z,6.27
2018-11-03T19:21:06.064Z,6.22
2018-11-03T19:23:35.789Z,6.15
2018-11-03T19:26:05.768Z,6.16
2018-11-03T19:28:35.513Z,6.19
2018-11-03T19:31:05.427Z,6.18
2018-11-03T19:33:35.128Z,6.15
2018-11-03T19:36:04.805Z,6.09
2018-11-03T19:38:34.504Z,6.01
2018-11-03T19:41:04.196Z,6.13
2018-11-03T19:43:33.909Z,6.13
2018-11-03T19:46:03.882Z,6.18
2018-11-03T19:48:33.595Z,6.15
2018-11-03T19:51:03.361Z,6.22
2018-11-03T19:53:33.057Z,6.15
2018-11-03T19:56:02.761Z,6.21
2018-11-03T19:58:39.045Z,6.29
2018-11-03T20:01:08.733Z,6.25
2018-11-03T20:03:38.474Z,6.27
2018-11-03T20:06:08.168Z,6.33
2018-11-03T20:08:37.888Z,6.28
2018-11-03T20:11:07.623Z,6.30
2018-11-03T20:13:37.302Z,6.29
2018-11-03T20:16:07.000Z,6.32
2018-11-03T20:18:36.710Z,6.40
2018-11-03T20:21:06.720Z,6.32
2018-11-03T20:23:36.384Z,6.31
2018-11-03T20:26:06.147Z,6.44
2018-11-03T20:28:36.162Z,6.43
2018-11-03T20:31:06.012Z,6.29
2018-11-03T20:33:35.702Z,6.28
2018-11-03T20:36:05.407Z,6.31
2018-11-03T20:38:35.111Z,6.29
2018-11-03T20:41:05.212Z,6.24
2018-11-03T20:43:34.977Z,6.18
2018-11-03T20:46:04.734Z,6.16
2018-11-03T20:48:34.473Z,6.14
2018-11-03T20:51:10.237Z,6.06
2018-11-03T20:53:40.506Z,6.03
2018-11-03T20:56:10.378Z,5.96
2018-11-03T20:58:40.120Z,5.90
2018-11-03T21:01:09.771Z,5.80
2018-11-03T21:03:39.452Z,5.71
2018-11-03T21:06:12.024Z,5.71
2018-11-03T21:08:41.375Z,5.61
2018-11-03T21:11:10.697Z,5.63
2018-11-03T21:13:40.074Z,5.61
2018-11-03T21:16:09.428Z,5.65
2018-11-03T21:18:38.836Z,5.72
2018-11-03T21:21:08.176Z,5.71
2018-11-03T21:23:37.616Z,5.64
2018-11-03T21:26:06.988Z,5.55
2018-11-03T21:28:36.357Z,5.52
2018-11-03T21:31:06.001Z,5.48
2018-11-03T21:33:35.360Z,5.63
2018-11-03T21:36:04.765Z,5.64
2018-11-03T21:38:34.184Z,5.73
2018-11-03T21:41:03.505Z,5.69
2018-11-03T21:43:33.184Z,5.71
2018-11-03T21:46:02.972Z,5.68
2018-11-03T21:48:32.590Z,5.72
2018-11-03T21:51:02.296Z,5.72
2018-11-03T21:53:32.004Z,5.77
2018-11-03T21:56:01.811Z,5.79
2018-11-03T21:58:31.414Z,5.81
2018-11-03T22:01:01.133Z,5.69
2018-11-03T22:03:31.167Z,5.59
2018-11-03T22:06:01.628Z,5.61
2018-11-03T22:08:31.048Z,5.61
2018-11-03T22:11:02.576Z,5.54
2018-11-03T22:13:32.064Z,5.53
2018-11-03T22:16:01.644Z,5.47
2018-11-03T22:18:31.440Z,5.43
2018-11-03T22:21:00.948Z,5.37
2018-11-03T22:23:30.393Z,5.33
2018-11-03T22:25:59.910Z,5.31
2018-11-03T22:28:29.385Z,5.26
2018-11-03T22:30:58.879Z,5.26
2018-11-03T22:33:28.389Z,5.30
2018-11-03T22:35:57.873Z,5.22
2018-11-03T22:38:27.366Z,5.21
2018-11-03T22:40:56.878Z,5.19
2018-11-03T22:43:26.511Z,5.08
2018-11-03T22:45:56.190Z,5.12
2018-11-03T22:48:25.879Z,5.08
2018-11-03T22:50:55.603Z,5.03
2018-11-03T22:53:25.265Z,5.08
2018-11-03T22:55:54.963Z,5.10
2018-11-03T22:58:24.624Z,5.11
2018-11-03T23:00:56.400Z,5.07
2018-11-03T23:03:26.769Z,4.92
2018-11-03T23:05:56.488Z,4.97
2018-11-03T23:08:26.174Z,5.02
2018-11-03T23:10:55.918Z,5.03
2018-11-03T23:13:25.615Z,5.03
2018-11-03T23:15:55.289Z,5.00
2018-11-03T23:18:24.965Z,5.00
2018-11-03T23:20:54.672Z,5.02
2018-11-03T23:23:24.355Z,5.07
2018-11-03T23:25:54.060Z,5.08
2018-11-03T23:28:23.721Z,5.06
2018-11-03T23:30:53.423Z,5.06
2018-11-03T23:33:23.147Z,5.05
2018-11-03T23:35:52.860Z,5.05
2018-11-03T23:38:22.533Z,5.02
2018-11-03T23:40:52.357Z,4.95
2018-11-03T23:43:22.192Z,4.88
2018-11-03T23:45:51.994Z,4.85
2018-11-03T23:48:21.734Z,4.79
2018-11-03T23:50:51.535Z,4.83
2018-11-03T23:53:21.324Z,4.86
2018-11-03T23:55:51.109Z,4.95
2018-11-03T23:58:20.940Z,4.95
